Time;durP1;ratioP1;P1;durP2;ratioP2;P2;SDS_P1;SDS_P2;PMS_P1;PMS_P2;Temp;Humidity;BMP_temperature;BMP_pressure;BME280_temperature;BME280_humidity;BME280_pressure;Samples;Min_cycle;Max_cycle;Signal;HPM_P1;HPM_P2
2023/04/23 00:01:46;;;;;;;21.08;8.63;;;;;;;9.00;75.35;98663.84;4980980;28;20081;-52
2023/04/23 00:04:17;;;;;;;13.23;5.60;;;;;;;9.01;75.47;98670.69;4981396;28;20501;-50
2023/04/23 00:06:46;;;;;;;12.75;7.78;;;;;;;9.01;75.54;98670.69;4980627;28;20061;-48
2023/04/23 00:09:15;;;;;;;15.07;8.30;;;;;;;8.99;75.77;98656.97;4978023;28;20052;-53
2023/04/23 00:11:42;;;;;;;11.52;6.82;;;;;;;9.00;76.11;98663.84;4983406;28;20056;-54
2023/04/23 00:14:10;;;;;;;14.35;7.78;;;;;;;8.98;75.74;98666.44;4984873;28;20073;-49
2023/04/23 00:16:38;;;;;;;14.80;7.70;;;;;;;9.00;76.50;98662.13;4982163;28;20113;-48
2023/04/23 00:19:04;;;;;;;16.33;6.85;;;;;;;9.08;75.63;98655.94;4981598;28;20046;-48
2023/04/23 00:21:31;;;;;;;16.75;8.75;;;;;;;9.07;76.01;98651.66;4983090;28;20510;-49
2023/04/23 00:23:58;;;;;;;14.13;7.70;;;;;;;9.02;76.44;98648.31;4983747;28;20051;-52
2023/04/23 00:26:26;;;;;;;16.50;8.13;;;;;;;9.07;75.67;98655.09;4983707;28;20046;-48
2023/04/23 00:28:54;;;;;;;14.57;7.18;;;;;;;9.05;76.51;98650.84;4982513;28;20054;-51
2023/04/23 00:31:23;;;;;;;12.98;7.65;;;;;;;9.04;76.66;98643.97;4984777;28;20512;-49
2023/04/23 00:33:51;;;;;;;12.52;7.50;;;;;;;8.99;77.33;98639.72;4980841;28;20153;-50
2023/04/23 00:36:19;;;;;;;14.15;6.95;;;;;;;9.04;76.62;98633.63;4984087;28;20054;-54
2023/04/23 00:38:47;;;;;;;17.05;8.07;;;;;;;9.04;76.85;98638.78;4982673;28;20055;-52
2023/04/23 00:41:16;;;;;;;14.48;7.45;;;;;;;8.96;78.09;98632.06;4976272;28;20078;-54
2023/04/23 00:43:44;;;;;;;20.50;8.73;;;;;;;8.98;77.61;98627.72;4976398;28;20601;-49
2023/04/23 00:46:13;;;;;;;18.25;8.75;;;;;;;8.97;77.89;98618.25;4979538;28;20137;-51
2023/04/23 00:48:42;;;;;;;12.95;8.05;;;;;;;8.98;77.78;98619.97;4983106;28;20066;-48
2023/04/23 00:51:11;;;;;;;17.15;7.80;;;;;;;8.96;78.38;98611.41;4985107;28;20463;-51
2023/04/23 00:53:39;;;;;;;19.50;9.15;;;;;;;9.00;78.22;98615.63;4986355;28;20046;-56
2023/04/23 00:56:07;;;;;;;18.13;9.57;;;;;;;8.95;78.38;98608.84;4985862;28;20723;-51
2023/04/23 00:58:35;;;;;;;18.73;9.05;;;;;;;8.94;78.77;98608.00;4983760;28;20058;-53
2023/04/23 01:01:03;;;;;;;15.70;8.43;;;;;;;8.93;79.14;98606.28;4982285;28;20104;-51
2023/04/23 01:03:31;;;;;;;17.73;9.20;;;;;;;8.87;78.61;98607.25;4977423;28;20043;-47
2023/04/23 01:05:58;;;;;;;20.73;9.50;;;;;;;8.88;78.97;98597.75;4977748;28;20097;-52
2023/04/23 01:08:25;;;;;;;20.73;9.43;;;;;;;8.94;78.47;98597.66;4982727;28;20050;-52
2023/04/23 01:10:52;;;;;;;18.63;9.80;;;;;;;8.93;78.26;98595.97;4983520;28;20561;-49
2023/04/23 01:13:21;;;;;;;22.05;9.68;;;;;;;8.91;78.83;98597.72;4982818;28;20042;-52
2023/04/23 01:15:47;;;;;;;21.75;10.10;;;;;;;9.00;77.70;98587.22;4981238;28;20149;-47
2023/04/23 01:18:14;;;;;;;20.65;9.02;;;;;;;8.92;78.29;98596.00;4983417;28;20058;-47
2023/04/23 01:20:42;;;;;;;21.85;9.63;;;;;;;8.95;78.51;98594.19;4982125;28;20073;-52
2023/04/23 01:23:08;;;;;;;16.65;9.75;;;;;;;8.99;77.79;98585.50;4979267;28;20050;-51
2023/04/23 01:25:35;;;;;;;19.75;10.13;;;;;;;9.07;77.41;98587.09;4980684;28;20080;-54
2023/04/23 01:28:02;;;;;;;20.27;10.18;;;;;;;9.06;77.43;98580.22;4979547;28;20105;-50
2023/04/23 01:30:29;;;;;;;15.82;8.80;;;;;;;9.04;78.52;98581.97;4982105;28;20145;-47
2023/04/23 01:32:57;;;;;;;16.77;8.95;;;;;;;9.07;78.73;98581.91;5010358;28;20058;-54
2023/04/23 01:35:24;;;;;;;16.27;7.22;;;;;;;9.06;78.42;98575.91;4979774;28;20465;-52
2023/04/23 01:37:53;;;;;;;18.05;9.85;;;;;;;9.06;78.53;98577.63;4978831;28;20058;-52
2023/04/23 01:40:20;;;;;;;13.73;5.93;;;;;;;9.02;78.81;98573.41;4985687;28;20457;-51
2023/04/23 01:42:48;;;;;;;21.13;10.18;;;;;;;9.13;78.26;98576.63;4984734;28;20042;-51
2023/04/23 01:45:16;;;;;;;26.00;10.18;;;;;;;9.13;78.40;98567.13;4984354;28;20077;-50
2023/04/23 01:47:43;;;;;;;21.02;10.77;;;;;;;9.16;78.71;98570.56;4984823;28;20695;-57
2023/04/23 01:50:10;;;;;;;24.23;10.13;;;;;;;9.18;77.98;98564.47;4983741;28;20046;-52
2023/04/23 01:52:37;;;;;;;18.02;10.48;;;;;;;9.23;78.03;98564.38;4983820;28;20407;-51
2023/04/23 01:55:04;;;;;;;24.95;11.25;;;;;;;9.27;77.64;98558.25;4986013;28;20085;-54
2023/04/23 01:57:30;;;;;;;21.20;11.68;;;;;;;9.28;77.85;98553.94;4984060;28;20046;-54
2023/04/23 02:00:14;;;;;;;21.98;10.13;;;;;;;9.28;76.98;98553.94;4983053;28;20096;-54
2023/04/23 02:02:42;;;;;;;23.13;10.80;;;;;;;9.34;77.32;98553.81;4966046;28;20584;-52
2023/04/23 02:05:12;;;;;;;23.08;7.22;;;;;;;9.34;77.34;98548.63;4983724;28;20497;-51
2023/04/23 02:07:39;;;;;;;22.48;10.82;;;;;;;9.31;78.04;98548.69;4984135;28;20085;-53
2023/04/23 02:10:07;;;;;;;21.15;8.98;;;;;;;9.37;77.72;98539.09;4986090;28;20062;-54
2023/04/23 02:12:35;;;;;;;19.17;9.55;;;;;;;9.40;78.07;98540.75;4984352;28;20073;-55
2023/04/23 02:15:02;;;;;;;20.33;9.85;;;;;;;9.40;78.24;98533.00;4981445;28;20141;-50
2023/04/23 02:17:28;;;;;;;19.10;10.18;;;;;;;9.43;78.33;98538.13;4985668;28;20540;-53
2023/04/23 02:19:55;;;;;;;17.08;8.40;;;;;;;9.47;78.27;98538.88;4985042;28;20052;-51
2023/04/23 02:22:25;;;;;;;15.65;8.10;;;;;;;9.48;78.35;98536.25;4983082;28;20050;-49
2023/04/23 02:24:52;;;;;;;21.98;9.93;;;;;;;9.50;78.49;98529.31;4983679;28;20117;-56
2023/04/23 02:27:19;;;;;;;18.70;8.90;;;;;;;9.52;78.83;98543.06;4983466;28;20104;-52
2023/04/23 02:29:47;;;;;;;16.67;8.38;;;;;;;9.51;79.00;98533.63;4978827;28;20054;-49
2023/04/23 02:32:14;;;;;;;22.13;9.55;;;;;;;9.52;78.72;98532.72;4981677;28;20142;-51
2023/04/23 02:34:40;;;;;;;21.88;9.50;;;;;;;9.60;78.61;98534.28;4982962;28;20046;-51
2023/04/23 02:37:08;;;;;;;22.70;9.57;;;;;;;9.59;78.81;98522.25;4982451;28;20046;-52
2023/04/23 02:39:34;;;;;;;20.27;8.93;;;;;;;9.60;78.63;98521.38;4984426;28;20490;-49
2023/04/23 02:42:01;;;;;;;24.52;10.40;;;;;;;9.63;78.40;98529.06;4977442;28;20046;-51
2023/04/23 02:44:27;;;;;;;21.60;9.68;;;;;;;9.65;78.08;98516.91;4980261;28;20046;-56
2023/04/23 02:46:55;;;;;;;20.08;10.32;;;;;;;9.68;78.07;98519.44;4979388;28;20050;-47
2023/04/23 02:49:21;;;;;;;18.50;8.90;;;;;;;9.67;78.28;98520.34;4983908;28;20062;-53
2023/04/23 02:51:48;;;;;;;22.15;9.50;;;;;;;9.70;77.98;98522.00;4983904;28;20498;-48
2023/04/23 02:54:15;;;;;;;19.33;10.27;;;;;;;9.69;77.63;98523.72;4984283;28;20054;-46
2023/04/23 02:56:41;;;;;;;17.10;8.75;;;;;;;9.73;77.99;98519.34;4984253;28;20073;-52
2023/04/23 02:59:09;;;;;;;18.80;8.93;;;;;;;9.74;78.42;98515.88;4982318;28;20050;-52
2023/04/23 03:01:36;;;;;;;20.30;9.25;;;;;;;9.73;78.43;98509.81;4983360;28;20042;-50
2023/04/23 03:04:03;;;;;;;20.15;9.00;;;;;;;9.76;77.92;98509.75;4986480;28;20109;-49
2023/04/23 03:06:30;;;;;;;18.73;8.27;;;;;;;9.77;78.36;98513.22;4980492;28;20133;-51
2023/04/23 03:08:57;;;;;;;21.25;8.90;;;;;;;9.79;77.87;98520.94;4987261;28;20054;-46
2023/04/23 03:11:23;;;;;;;16.00;7.57;;;;;;;9.78;78.97;98514.91;4985337;28;20050;-53
2023/04/23 03:13:50;;;;;;;15.85;7.97;;;;;;;9.74;79.97;98506.38;4981808;28;20078;-51
2023/04/23 03:16:17;;;;;;;14.25;7.18;;;;;;;9.82;78.79;98515.66;4987842;28;20077;-48
2023/04/23 03:18:43;;;;;;;17.30;7.57;;;;;;;9.84;78.83;98516.50;4980671;28;20155;-48
2023/04/23 03:21:10;;;;;;;12.80;7.18;;;;;;;9.84;79.43;98507.00;4985673;28;20124;-53
2023/04/23 03:23:36;;;;;;;14.20;7.80;;;;;;;9.87;79.30;98506.91;4979537;28;20065;-48
2023/04/23 03:26:03;;;;;;;13.73;6.35;;;;;;;9.87;79.68;98511.25;4985052;28;20044;-51
2023/04/23 03:28:30;;;;;;;13.57;7.32;;;;;;;9.90;79.62;98516.34;4986699;28;20050;-48
2023/04/23 03:30:56;;;;;;;13.73;6.80;;;;;;;9.92;79.33;98511.97;4981572;28;20086;-53
2023/04/23 03:33:23;;;;;;;15.05;5.88;;;;;;;9.92;79.59;98514.56;4978277;28;20121;-51
2023/04/23 03:35:50;;;;;;;10.90;6.00;;;;;;;9.95;79.28;98509.31;4982832;28;20074;-51
2023/04/23 03:38:17;;;;;;;15.50;7.60;;;;;;;9.95;79.63;98508.44;4980645;28;20042;-56
2023/04/23 03:40:44;;;;;;;8.82;5.40;;;;;;;9.98;78.99;98504.06;4980401;28;20057;-49
2023/04/23 03:43:10;;;;;;;13.68;6.40;;;;;;;9.99;79.49;98500.59;4977692;28;20085;-54
2023/04/23 03:45:37;;;;;;;11.88;4.60;;;;;;;10.02;78.96;98505.69;4979956;28;21529;-54
2023/04/23 03:48:03;;;;;;;15.98;7.10;;;;;;;10.03;78.87;98507.38;4975119;28;20074;-54
2023/04/23 03:50:33;;;;;;;14.25;5.80;;;;;;;10.03;79.41;98499.63;4980718;28;20050;-48
2023/04/23 03:52:59;;;;;;;16.75;7.68;;;;;;;10.07;79.20;98496.97;4984873;28;20057;-53
2023/04/23 03:55:26;;;;;;;14.13;7.18;;;;;;;10.07;78.95;98491.78;4981277;28;20058;-51
2023/04/23 03:57:53;;;;;;;15.38;7.82;;;;;;;10.10;78.83;98492.53;4982410;28;20101;-56
2023/04/23 04:00:19;;;;;;;12.35;5.72;;;;;;;10.11;78.71;98490.81;4978371;28;20130;-53
2023/04/23 04:02:46;;;;;;;15.32;6.80;;;;;;;10.11;79.32;98490.81;4983508;28;20104;-50
2023/04/23 04:05:13;;;;;;;12.95;6.05;;;;;;;10.15;78.30;98487.25;4984919;28;20050;-47
2023/04/23 04:07:40;;;;;;;10.68;5.68;;;;;;;10.16;78.91;98488.94;4985640;28;20073;-51
2023/04/23 04:10:07;;;;;;;13.77;6.63;;;;;;;10.18;78.03;98483.72;4985943;28;20090;-50
2023/04/23 04:12:33;;;;;;;14.55;7.07;;;;;;;10.21;77.76;98487.09;4985873;28;20545;-47
2023/04/23 04:15:01;;;;;;;19.52;6.63;;;;;;;10.21;78.90;98484.53;4982189;28;20104;-51
2023/04/23 04:17:28;;;;;;;10.20;5.97;;;;;;;10.21;78.32;98479.34;4980291;28;20130;-48
2023/04/23 04:19:55;;;;;;;7.95;5.05;;;;;;;10.19;78.68;98475.94;4980900;28;20058;-47
2023/04/23 04:22:21;;;;;;;10.88;6.07;;;;;;;10.22;78.95;98480.19;4977969;28;20062;-57
2023/04/23 04:24:50;;;;;;;11.63;6.10;;;;;;;10.22;78.42;98481.03;4978084;28;20142;-49
2023/04/23 04:27:17;;;;;;;15.60;5.75;;;;;;;10.24;78.80;98474.06;4977571;28;20054;-50
2023/04/23 04:29:44;;;;;;;14.95;5.55;;;;;;;10.26;78.78;98477.47;4979510;28;20177;-54
2023/04/23 04:32:12;;;;;;;10.20;5.30;;;;;;;10.27;78.46;98474.00;4980813;28;20077;-52
2023/04/23 04:34:39;;;;;;;5.00;2.85;;;;;;;10.24;79.12;98474.06;4979592;28;20438;-53
2023/04/23 04:37:06;;;;;;;8.25;4.22;;;;;;;10.24;78.90;98468.06;4979483;28;20124;-51
2023/04/23 04:39:33;;;;;;;6.78;4.30;;;;;;;10.26;78.55;98459.38;4984446;28;20059;-53
2023/04/23 04:42:01;;;;;;;7.85;4.13;;;;;;;10.26;78.38;98461.94;4980306;28;20105;-52
2023/04/23 04:44:29;;;;;;;7.28;4.45;;;;;;;10.28;78.80;98465.34;4979484;28;20046;-47
2023/04/23 04:46:56;;;;;;;8.07;4.32;;;;;;;10.29;78.10;98468.78;5007071;28;20054;-56
2023/04/23 04:49:23;;;;;;;9.27;4.47;;;;;;;10.26;79.22;98466.25;4977451;28;20050;-50
2023/04/23 04:51:50;;;;;;;11.35;2.90;;;;;;;10.29;78.89;98472.22;4983378;28;20458;-48
2023/04/23 04:54:17;;;;;;;11.05;5.05;;;;;;;10.27;78.72;98463.63;4984832;28;20043;-53
2023/04/23 04:56:43;;;;;;;8.52;4.22;;;;;;;10.28;79.48;98464.50;4988647;28;20050;-51
2023/04/23 04:59:10;;;;;;;8.43;3.92;;;;;;;10.31;78.60;98463.56;4984051;28;20380;-50
2023/04/23 05:01:37;;;;;;;7.30;3.72;;;;;;;10.29;79.25;98455.84;4984607;28;20062;-53
2023/04/23 05:04:03;;;;;;;9.23;4.47;;;;;;;10.33;79.18;98461.78;4983257;28;20050;-47
2023/04/23 05:06:31;;;;;;;8.73;4.40;;;;;;;10.28;79.32;98457.59;4985384;28;20414;-53
2023/04/23 05:08:58;;;;;;;5.45;3.20;;;;;;;10.29;79.71;98456.69;4985031;28;20054;-56
2023/04/23 05:11:24;;;;;;;6.55;4.03;;;;;;;10.33;79.88;98456.63;4986182;28;20105;-53
2023/04/23 05:13:51;;;;;;;5.43;2.28;;;;;;;10.33;79.06;98460.03;4987150;28;20565;-53
2023/04/23 05:16:18;;;;;;;8.32;3.78;;;;;;;10.33;79.35;98464.38;4985853;28;20096;-47
2023/04/23 05:18:45;;;;;;;9.85;3.38;;;;;;;10.34;79.17;98460.91;4987517;28;20050;-55
2023/04/23 05:21:14;;;;;;;7.72;3.42;;;;;;;10.35;78.96;98454.81;4984214;28;20050;-51
2023/04/23 05:23:41;;;;;;;7.57;3.22;;;;;;;10.37;79.29;98455.66;4986273;28;20157;-50
2023/04/23 05:26:07;;;;;;;8.85;3.70;;;;;;;10.38;79.74;98459.91;4984340;28;20100;-51
2023/04/23 05:28:35;;;;;;;8.13;3.40;;;;;;;10.35;79.33;98455.69;4980319;28;20085;-56
2023/04/23 05:31:02;;;;;;;7.07;3.00;;;;;;;10.39;79.67;98466.78;4980474;28;20050;-55
2023/04/23 05:33:28;;;;;;;6.80;3.80;;;;;;;10.38;79.63;98470.28;4977580;28;20046;-55
2023/04/23 05:36:01;;;;;;;6.90;3.08;;;;;;;10.43;79.20;98467.56;4977958;28;20137;-47
2023/04/23 05:38:28;;;;;;;6.35;3.00;;;;;;;10.44;78.96;98458.91;4980753;28;20046;-51
2023/04/23 05:40:55;;;;;;;9.55;3.88;;;;;;;10.48;78.72;98464.00;4979360;28;20085;-53
2023/04/23 05:43:21;;;;;;;7.82;3.10;;;;;;;10.50;79.03;98469.97;4995760;28;20570;-52
2023/04/23 05:45:48;;;;;;;8.27;4.10;;;;;;;10.49;78.74;98457.91;4979978;28;21389;-54
2023/04/23 05:48:14;;;;;;;6.85;3.60;;;;;;;10.53;78.77;98469.88;4981134;28;20066;-49
2023/04/23 05:50:41;;;;;;;6.88;3.08;;;;;;;10.58;78.32;98471.50;4983182;28;20134;-54
2023/04/23 05:53:08;;;;;;;5.70;3.25;;;;;;;10.59;77.82;98470.59;4984688;28;20054;-50
2023/04/23 05:55:34;;;;;;;6.53;3.03;;;;;;;10.60;78.61;98469.72;4982756;28;20329;-56
2023/04/23 05:58:01;;;;;;;10.40;7.75;;;;;;;10.59;78.24;98481.81;4980673;28;20112;-50
2023/04/23 06:00:28;;;;;;;20.92;11.13;;;;;;;10.58;78.25;98480.13;4980440;28;20054;-56
2023/04/23 06:02:54;;;;;;;25.50;13.70;;;;;;;10.60;78.40;98474.91;4980393;28;20230;-51
2023/04/23 06:05:21;;;;;;;50.50;28.15;;;;;;;10.62;77.54;98478.28;4980547;28;20058;-53
2023/04/23 06:07:48;;;;;;;29.63;22.15;;;;;;;10.62;77.67;98473.97;4980150;28;20198;-52
2023/04/23 06:10:15;;;;;;;17.67;12.93;;;;;;;10.60;77.48;98477.50;4981283;28;20053;-46
2023/04/23 06:12:41;;;;;;;11.75;9.85;;;;;;;10.59;77.83;98478.34;4980964;28;20115;-51
2023/04/23 06:15:09;;;;;;;11.18;7.70;;;;;;;10.59;77.60;98478.34;4979960;28;20125;-53
2023/04/23 06:17:36;;;;;;;13.23;7.57;;;;;;;10.59;77.57;98484.38;4981129;28;20061;-54
2023/04/23 06:20:04;;;;;;;9.48;6.07;;;;;;;10.54;77.52;98484.50;4979393;28;20070;-57
2023/04/23 06:22:31;;;;;;;8.82;5.38;;;;;;;10.57;77.70;98487.91;4979975;28;20053;-52
2023/04/23 06:24:58;;;;;;;8.48;4.75;;;;;;;10.53;78.00;98495.75;4980831;28;20042;-56
2023/04/23 06:27:25;;;;;;;20.65;11.90;;;;;;;10.51;77.87;98486.34;4980641;28;20109;-54
2023/04/23 06:29:52;;;;;;;8.40;5.78;;;;;;;10.52;77.62;98488.91;4977651;28;20065;-54
2023/04/23 06:32:20;;;;;;;7.68;5.70;;;;;;;10.51;77.63;98492.34;4981630;28;20048;-54
2023/04/23 06:34:46;;;;;;;8.68;5.32;;;;;;;10.54;77.38;98492.28;4981946;28;20049;-52
2023/04/23 06:37:27;;;;;;;8.35;5.22;;;;;;;10.58;77.43;98489.59;4981336;28;20047;-50
2023/04/23 06:39:55;;;;;;;9.70;5.57;;;;;;;10.62;77.29;98493.81;4978542;28;20053;-58
2023/04/23 06:42:22;;;;;;;8.10;5.50;;;;;;;10.63;77.23;98493.78;4983782;28;20058;-52
2023/04/23 06:44:50;;;;;;;8.25;3.95;;;;;;;10.63;76.49;98495.50;4982857;28;20491;-51
2023/04/23 06:47:18;;;;;;;12.98;7.13;;;;;;;10.60;77.08;98505.97;4979776;28;20054;-49
2023/04/23 06:49:44;;;;;;;9.80;5.35;;;;;;;10.60;77.08;98511.97;4981066;28;20146;-46
2023/04/23 06:52:11;;;;;;;8.98;4.43;;;;;;;10.60;77.23;98516.31;4986164;28;20063;-53
2023/04/23 06:54:38;;;;;;;9.68;5.18;;;;;;;10.62;76.43;98514.53;4984157;28;20038;-55
2023/04/23 06:57:05;;;;;;;10.60;6.15;;;;;;;10.63;76.50;98516.22;4981671;28;20082;-55
2023/04/23 06:59:32;;;;;;;12.60;6.68;;;;;;;10.68;76.98;98514.38;4981267;28;20065;-54
2023/04/23 07:01:58;;;;;;;14.05;7.57;;;;;;;10.72;76.49;98515.97;4982775;28;20078;-53
2023/04/23 07:04:25;;;;;;;14.02;7.50;;;;;;;10.75;76.95;98517.63;4980097;28;20124;-59
2023/04/23 07:06:52;;;;;;;10.35;6.03;;;;;;;10.76;75.86;98517.59;4981657;28;20145;-49
2023/04/23 07:09:18;;;;;;;14.02;6.72;;;;;;;10.83;75.89;98519.97;4982087;28;20074;-48
2023/04/23 07:11:45;;;;;;;12.73;6.50;;;;;;;10.86;76.27;98527.66;4983329;28;20136;-50
2023/04/23 07:14:12;;;;;;;13.05;6.72;;;;;;;10.87;75.91;98535.41;4985330;28;20054;-52
2023/04/23 07:16:38;;;;;;;10.80;6.68;;;;;;;10.82;75.87;98531.25;4983546;28;20158;-53
2023/04/23 07:19:05;;;;;;;12.20;6.70;;;;;;;10.78;75.22;98536.50;4979969;28;20084;-57
2023/04/23 07:21:31;;;;;;;11.10;6.13;;;;;;;10.77;75.43;98534.81;4983584;28;20124;-56
2023/04/23 07:23:59;;;;;;;14.38;7.10;;;;;;;10.79;76.46;98530.44;4981086;28;20038;-48
2023/04/23 07:26:26;;;;;;;11.85;6.90;;;;;;;10.88;75.52;98531.91;4977076;28;20057;-56
2023/04/23 07:28:53;;;;;;;14.27;6.90;;;;;;;11.02;75.79;98538.44;4983493;28;20167;-54
2023/04/23 07:31:20;;;;;;;11.60;6.22;;;;;;;11.35;75.43;98534.91;4977592;28;20108;-51
2023/04/23 07:33:47;;;;;;;9.77;5.97;;;;;;;11.52;74.85;98537.81;4963983;28;20050;-58
2023/04/23 07:36:14;;;;;;;10.07;5.35;;;;;;;11.69;74.96;98531.28;4978567;28;20054;-51
2023/04/23 07:38:40;;;;;;;9.43;5.55;;;;;;;11.92;75.30;98532.28;4985860;28;20050;-55
2023/04/23 07:41:07;;;;;;;10.07;5.47;;;;;;;11.97;73.67;98530.38;4983316;28;20461;-55
2023/04/23 07:43:33;;;;;;;12.95;6.95;;;;;;;11.94;74.49;98522.69;4977013;28;20057;-52
2023/04/23 07:46:00;;;;;;;11.70;6.60;;;;;;;11.88;74.05;98528.06;4970127;28;20105;-52
2023/04/23 07:48:27;;;;;;;11.50;6.68;;;;;;;11.87;74.83;98531.56;4970404;28;20125;-52
2023/04/23 07:50:53;;;;;;;12.00;6.07;;;;;;;11.86;74.18;98530.72;4970447;28;20058;-58
2023/04/23 07:53:20;;;;;;;12.02;6.30;;;;;;;11.81;73.58;98543.84;4971032;28;20074;-53
2023/04/23 07:55:47;;;;;;;8.60;5.32;;;;;;;11.76;74.50;98548.31;4972625;28;20138;-53
2023/04/23 07:58:14;;;;;;;11.57;5.90;;;;;;;11.70;74.18;98541.59;4976149;28;20097;-58
2023/04/23 08:00:40;;;;;;;10.75;4.70;;;;;;;11.67;73.84;98543.44;4969403;28;20514;-53
2023/04/23 08:03:07;;;;;;;8.30;5.55;;;;;;;11.65;73.75;98540.88;4980796;28;20133;-59
2023/04/23 08:05:36;;;;;;;12.05;7.35;;;;;;;11.64;74.33;98546.97;4982681;28;20047;-55
2023/04/23 08:08:02;;;;;;;13.38;7.13;;;;;;;11.67;73.25;98540.84;4985230;28;20129;-52
2023/04/23 08:10:29;;;;;;;13.00;6.63;;;;;;;11.67;73.82;98546.03;4979136;28;20133;-51
2023/04/23 08:12:55;;;;;;;14.85;8.05;;;;;;;11.62;73.96;98542.72;4975675;28;20042;-48
2023/04/23 08:15:22;;;;;;;21.65;8.90;;;;;;;11.54;73.46;98541.22;4974201;28;20046;-55
2023/04/23 08:17:49;;;;;;;23.98;10.13;;;;;;;11.52;72.97;98552.53;4976087;28;20096;-55
2023/04/23 08:20:16;;;;;;;16.88;7.45;;;;;;;11.49;73.79;98552.63;4974994;28;20406;-53
2023/04/23 08:22:43;;;;;;;29.48;10.57;;;;;;;11.43;73.22;98553.66;4972704;28;20049;-52
2023/04/23 08:25:12;;;;;;;16.58;7.80;;;;;;;11.41;72.88;98550.25;4975055;28;20105;-48
2023/04/23 08:27:38;;;;;;;17.90;8.60;;;;;;;11.39;72.57;98557.25;4984590;28;20046;-58
2023/04/23 08:30:07;;;;;;;15.88;7.35;;;;;;;11.41;73.21;98565.81;4979644;28;20077;-54
2023/04/23 08:32:33;;;;;;;22.45;9.02;;;;;;;11.40;72.76;98561.53;4984482;28;20063;-48
2023/04/23 08:35:00;;;;;;;17.88;7.50;;;;;;;11.40;72.67;98566.72;4988662;28;20097;-46
2023/04/23 08:37:26;;;;;;;16.27;7.30;;;;;;;11.36;73.93;98572.88;4991281;28;20074;-52
2023/04/23 08:39:57;;;;;;;19.25;7.15;;;;;;;11.32;72.98;98565.19;4983967;28;20767;-55
2023/04/23 08:42:36;;;;;;;19.30;9.27;;;;;;;11.31;72.93;98576.47;4979402;28;20054;-53
2023/04/23 08:45:03;;;;;;;27.95;12.90;;;;;;;11.29;72.66;98577.41;4976684;28;20137;-58
2023/04/23 08:47:31;;;;;;;22.52;10.15;;;;;;;11.23;73.50;98575.84;4975726;28;20051;-51
2023/04/23 08:49:58;;;;;;;28.15;12.48;;;;;;;11.19;73.41;98574.25;4980210;28;20147;-52
2023/04/23 08:52:28;;;;;;;21.88;11.35;;;;;;;11.09;72.58;98578.84;4979612;28;20054;-59
2023/04/23 08:54:59;;;;;;;24.80;11.07;;;;;;;11.04;72.63;98581.56;4982707;28;20490;-55
2023/04/23 08:57:26;;;;;;;23.52;11.02;;;;;;;11.01;73.79;98580.81;4980365;28;20054;-54
2023/04/23 08:59:54;;;;;;;32.78;12.23;;;;;;;10.99;73.37;98583.44;4984765;28;20046;-54
2023/04/23 09:02:21;;;;;;;28.52;11.95;;;;;;;10.98;73.23;98581.72;4981182;28;20598;-52
2023/04/23 09:04:48;;;;;;;24.20;10.02;;;;;;;10.95;72.98;98587.00;4979138;28;20418;-58
2023/04/23 09:07:18;;;;;;;20.17;8.57;;;;;;;10.92;72.86;98585.31;4979648;28;20089;-48
2023/04/23 09:09:44;;;;;;;24.55;8.65;;;;;;;10.91;73.32;98591.41;4985271;28;20077;-56
2023/04/23 09:12:11;;;;;;;21.65;8.40;;;;;;;10.88;73.49;98588.06;4978705;28;20054;-52
2023/04/23 09:14:37;;;;;;;24.02;9.35;;;;;;;10.89;73.68;98594.94;4980956;28;20093;-53
2023/04/23 09:17:04;;;;;;;21.73;8.90;;;;;;;10.89;73.45;98593.22;4980252;28;20054;-54
2023/04/23 09:19:31;;;;;;;23.17;9.20;;;;;;;10.93;74.27;98596.53;4985528;28;20046;-53
2023/04/23 09:22:00;;;;;;;18.67;9.07;;;;;;;10.97;73.61;98590.38;4982689;28;20056;-52
2023/04/23 09:24:27;;;;;;;20.45;8.43;;;;;;;11.01;73.71;98596.34;4979281;28;20049;-53
2023/04/23 09:26:54;;;;;;;17.80;9.07;;;;;;;11.09;74.51;98606.47;4976259;28;20133;-48
2023/04/23 09:29:22;;;;;;;18.77;7.43;;;;;;;11.17;73.13;98601.94;4978799;28;20533;-48
2023/04/23 09:31:51;;;;;;;18.98;8.35;;;;;;;11.22;74.46;98602.66;4979597;28;20137;-53
2023/04/23 09:34:19;;;;;;;15.60;8.23;;;;;;;11.27;74.16;98605.97;4980520;28;20053;-54
2023/04/23 09:36:49;;;;;;;18.08;7.63;;;;;;;11.31;73.11;98607.56;4986601;28;20116;-53
2023/04/23 09:39:18;;;;;;;18.13;7.80;;;;;;;11.37;73.97;98600.50;4981738;28;20073;-56
2023/04/23 09:41:45;;;;;;;14.75;7.53;;;;;;;11.41;73.27;98605.56;4990840;28;20057;-51
2023/04/23 09:44:17;;;;;;;20.25;8.98;;;;;;;11.49;73.55;98609.66;4982583;28;20070;-50
2023/04/23 09:46:44;;;;;;;14.68;5.60;;;;;;;11.50;73.47;98607.03;5009342;28;20595;-50
2023/04/23 09:49:12;;;;;;;16.17;8.23;;;;;;;11.56;72.78;98617.22;4984333;28;20078;-55
2023/04/23 09:51:40;;;;;;;14.95;7.03;;;;;;;11.61;73.71;98603.25;4967516;28;20061;-54
2023/04/23 09:54:17;;;;;;;14.38;7.28;;;;;;;11.59;72.19;98605.06;4988167;28;20506;-50
2023/04/23 09:56:49;;;;;;;15.43;7.88;;;;;;;11.63;73.60;98604.94;4986367;28;20062;-58
2023/04/23 09:59:26;;;;;;;13.32;7.47;;;;;;;11.64;72.23;98598.84;4988282;28;20050;-55
2023/04/23 10:02:11;;;;;;;9.88;4.82;;;;;;;11.66;72.98;98611.75;4985962;28;20046;-49
2023/04/23 10:04:38;;;;;;;16.20;5.88;;;;;;;11.67;72.25;98603.94;4987834;28;20391;-52
2023/04/23 10:07:07;;;;;;;16.63;8.18;;;;;;;11.70;72.86;98592.63;4988737;28;20129;-56
2023/04/23 10:09:46;;;;;;;14.10;6.55;;;;;;;11.74;72.08;98604.59;4982345;28;20058;-56
2023/04/23 10:12:13;;;;;;;14.98;7.00;;;;;;;11.78;73.02;98595.81;4988982;28;20104;-54
2023/04/23 10:15:01;;;;;;;13.30;6.97;;;;;;;11.85;71.84;98591.28;4985850;28;20659;-52
2023/04/23 10:17:28;;;;;;;15.75;7.05;;;;;;;11.94;72.48;98595.34;4989458;28;20505;-56
2023/04/23 10:19:59;;;;;;;14.00;8.45;;;;;;;12.07;72.09;98599.28;4988188;28;20129;-52
2023/04/23 10:22:28;;;;;;;15.93;7.68;;;;;;;12.24;72.86;98603.06;4985369;28;20603;-53
2023/04/23 10:24:57;;;;;;;15.57;6.97;;;;;;;12.45;72.24;98595.44;4986535;28;20061;-56
2023/04/23 10:27:27;;;;;;;15.80;7.68;;;;;;;12.64;72.61;98594.81;4983475;28;20058;-52
2023/04/23 10:30:12;;;;;;;10.00;5.32;;;;;;;12.79;72.96;98599.47;4987392;28;20042;-52
2023/04/23 10:32:39;;;;;;;8.25;5.30;;;;;;;13.01;71.60;98597.88;4984606;28;20502;-54
2023/04/23 10:35:07;;;;;;;10.63;5.18;;;;;;;13.27;71.57;98594.31;4986279;28;20078;-55
2023/04/23 10:37:36;;;;;;;13.38;6.40;;;;;;;13.61;72.71;98605.22;4989391;28;20047;-55
2023/04/23 10:42:43;;;;;;;5.85;2.90;;;;;;;14.00;69.86;98608.91;5031249;28;20414;-53
2023/04/23 10:45:19;;;;;;;8.52;3.85;;;;;;;13.98;69.89;98611.59;5036439;28;20050;-54
2023/04/23 10:47:53;;;;;;;9.18;4.30;;;;;;;14.07;69.63;98607.78;5029605;28;20041;-50
2023/04/23 10:50:29;;;;;;;6.90;2.92;;;;;;;14.17;69.28;98599.56;5032003;28;20048;-47
2023/04/23 10:52:56;;;;;;;9.63;4.38;;;;;;;14.25;68.86;98602.69;5022996;28;20103;-49
2023/04/23 10:55:27;;;;;;;8.27;3.83;;;;;;;14.32;68.67;98596.34;5022145;28;20147;-47
2023/04/23 11:00:45;;;;;;;11.07;6.32;;;;;;;14.62;67.04;98589.88;5003176;27;20445;-52
2023/04/23 11:03:30;;;;;;;10.57;6.72;;;;;;;14.73;67.94;98600.69;5009088;28;20042;-56
2023/04/23 11:06:02;;;;;;;9.40;6.43;;;;;;;14.82;66.69;98596.88;5002417;28;20095;-55
2023/04/23 11:08:31;;;;;;;7.60;4.90;;;;;;;14.90;66.18;98602.59;4989139;28;20691;-49
2023/04/23 11:10:59;;;;;;;5.85;4.18;;;;;;;14.99;66.49;98600.50;4993671;28;20709;-56
2023/04/23 11:13:27;;;;;;;6.47;4.10;;;;;;;14.96;65.75;98600.66;4991710;28;20062;-52
2023/04/23 11:16:20;;;;;;;6.18;4.53;;;;;;;14.81;64.77;98600.41;5003409;28;20104;-54
2023/04/23 11:22:11;;;;;;;8.45;4.82;;;;;;;14.86;65.37;98598.44;5051178;27;20396;-53
2023/04/23 11:24:41;;;;;;;12.40;5.18;;;;;;;15.07;65.89;98589.75;5024729;28;20045;-53
2023/04/23 11:27:12;;;;;;;12.60;6.20;;;;;;;15.24;65.62;98591.59;5033398;28;20050;-55
2023/04/23 11:29:41;;;;;;;10.60;5.13;;;;;;;15.25;64.26;98594.13;5036326;28;20037;-52
2023/04/23 11:32:09;;;;;;;10.50;4.82;;;;;;;15.24;64.15;98591.59;5036895;28;20069;-55
2023/04/23 11:34:38;;;;;;;9.30;4.50;;;;;;;15.04;63.40;98581.13;5001038;28;20414;-55
2023/04/23 11:37:08;;;;;;;13.18;5.80;;;;;;;15.09;64.41;98586.16;5057782;28;20126;-55
2023/04/23 11:39:35;;;;;;;11.00;5.72;;;;;;;15.18;64.04;98586.66;5060919;28;20076;-53
2023/04/23 11:42:02;;;;;;;10.05;4.82;;;;;;;15.21;63.38;98584.75;5066777;28;20560;-53